sensor_id;sensor_type;location;lat;lon;timestamp;P1;durP1;ratioP1;P2;durP2;ratioP2
6499;SDS011;3283;52.330;9.772;2022-12-19T05:02:39;77.93;;;38.73;;
6499;SDS011;3283;52.330;9.772;2022-12-19T05:05:49;587.23;;;383.67;;
6499;SDS011;3283;52.330;9.772;2022-12-19T05:08:14;96.33;;;33.87;;
6499;SDS011;3283;52.330;9.772;2022-12-19T05:10:39;301.67;;;154.27;;
6499;SDS011;3283;52.330;9.772;2022-12-19T05:13:05;510.47;;;144.80;;
6499;SDS011;3283;52.330;9.772;2022-12-19T05:15:30;496.17;;;130.20;;
6499;SDS011;3283;52.330;9.772;2022-12-19T05:17:56;513.73;;;139.73;;
6499;SDS011;3283;52.330;9.772;2022-12-19T05:23:02;421.27;;;128.37;;
6499;SDS011;3283;52.330;9.772;2022-12-19T05:25:27;374.97;;;122.27;;
6499;SDS011;3283;52.330;9.772;2022-12-19T05:27:53;352.10;;;113.23;;
6499;SDS011;3283;52.330;9.772;2022-12-19T05:30:18;271.60;;;105.97;;
6499;SDS011;3283;52.330;9.772;2022-12-19T05:32:43;354.10;;;120.97;;
6499;SDS011;3283;52.330;9.772;2022-12-19T05:35:09;407.30;;;120.43;;
6499;SDS011;3283;52.330;9.772;2022-12-19T05:37:34;355.43;;;116.80;;
6499;SDS011;3283;52.330;9.772;2022-12-19T05:39:59;272.30;;;113.10;;
6499;SDS011;3283;52.330;9.772;2022-12-19T05:42:25;334.10;;;115.57;;
6499;SDS011;3283;52.330;9.772;2022-12-19T05:44:50;436.00;;;120.20;;
6499;SDS011;3283;52.330;9.772;2022-12-19T05:47:15;359.23;;;112.97;;
6499;SDS011;3283;52.330;9.772;2022-12-19T05:49:41;209.03;;;97.90;;
6499;SDS011;3283;52.330;9.772;2022-12-19T05:52:06;256.70;;;100.37;;
6499;SDS011;3283;52.330;9.772;2022-12-19T05:54:35;267.13;;;109.03;;
6499;SDS011;3283;52.330;9.772;2022-12-19T05:57:01;264.37;;;108.03;;
6499;SDS011;3283;52.330;9.772;2022-12-19T05:59:26;263.47;;;115.80;;
6499;SDS011;3283;52.330;9.772;2022-12-19T06:01:52;233.33;;;104.77;;
6499;SDS011;3283;52.330;9.772;2022-12-19T06:04:18;185.57;;;96.33;;
6499;SDS011;3283;52.330;9.772;2022-12-19T06:06:43;205.80;;;105.63;;
6499;SDS011;3283;52.330;9.772;2022-12-19T06:09:08;214.77;;;101.90;;
6499;SDS011;3283;52.330;9.772;2022-12-19T06:11:34;220.53;;;99.40;;
6499;SDS011;3283;52.330;9.772;2022-12-19T06:13:59;235.50;;;106.03;;
6499;SDS011;3283;52.330;9.772;2022-12-19T06:16:24;173.97;;;93.67;;
6499;SDS011;3283;52.330;9.772;2022-12-19T06:18:50;157.90;;;84.30;;
6499;SDS011;3283;52.330;9.772;2022-12-19T06:21:16;129.90;;;73.50;;
6499;SDS011;3283;52.330;9.772;2022-12-19T06:23:43;132.60;;;83.43;;
6499;SDS011;3283;52.330;9.772;2022-12-19T06:26:10;148.90;;;82.13;;
6499;SDS011;3283;52.330;9.772;2022-12-19T06:28:38;153.50;;;85.77;;
6499;SDS011;3283;52.330;9.772;2022-12-19T06:31:04;151.27;;;81.33;;
6499;SDS011;3283;52.330;9.772;2022-12-19T06:33:30;151.93;;;88.60;;
6499;SDS011;3283;52.330;9.772;2022-12-19T06:35:59;147.50;;;79.77;;
6499;SDS011;3283;52.330;9.772;2022-12-19T06:38:27;184.63;;;91.40;;
6499;SDS011;3283;52.330;9.772;2022-12-19T06:40:53;163.43;;;80.57;;
6499;SDS011;3283;52.330;9.772;2022-12-19T06:43:37;168.37;;;92.37;;
6499;SDS011;3283;52.330;9.772;2022-12-19T06:46:03;153.57;;;87.83;;
6499;SDS011;3283;52.330;9.772;2022-12-19T06:48:29;162.63;;;87.70;;
6499;SDS011;3283;52.330;9.772;2022-12-19T06:50:54;157.07;;;89.50;;
6499;SDS011;3283;52.330;9.772;2022-12-19T06:53:20;164.00;;;89.93;;
6499;SDS011;3283;52.330;9.772;2022-12-19T06:55:46;167.83;;;89.60;;
6499;SDS011;3283;52.330;9.772;2022-12-19T06:58:12;178.57;;;98.77;;
6499;SDS011;3283;52.330;9.772;2022-12-19T07:00:38;178.40;;;98.97;;
6499;SDS011;3283;52.330;9.772;2022-12-19T07:03:03;179.03;;;104.37;;
6499;SDS011;3283;52.330;9.772;2022-12-19T07:05:33;169.33;;;93.70;;
6499;SDS011;3283;52.330;9.772;2022-12-19T07:07:59;175.57;;;103.87;;
6499;SDS011;3283;52.330;9.772;2022-12-19T07:10:24;171.97;;;101.87;;
6499;SDS011;3283;52.330;9.772;2022-12-19T07:12:50;190.00;;;99.27;;
6499;SDS011;3283;52.330;9.772;2022-12-19T07:15:15;183.33;;;95.57;;
6499;SDS011;3283;52.330;9.772;2022-12-19T07:17:40;186.47;;;98.03;;
6499;SDS011;3283;52.330;9.772;2022-12-19T07:20:06;209.87;;;122.00;;
6499;SDS011;3283;52.330;9.772;2022-12-19T07:22:33;198.03;;;105.50;;
6499;SDS011;3283;52.330;9.772;2022-12-19T07:25:00;210.67;;;113.87;;
6499;SDS011;3283;52.330;9.772;2022-12-19T07:27:26;207.63;;;111.07;;
6499;SDS011;3283;52.330;9.772;2022-12-19T07:29:52;196.93;;;106.27;;
6499;SDS011;3283;52.330;9.772;2022-12-19T07:32:18;211.33;;;107.70;;
6499;SDS011;3283;52.330;9.772;2022-12-19T07:34:44;207.60;;;105.63;;
6499;SDS011;3283;52.330;9.772;2022-12-19T07:37:10;197.63;;;110.17;;
6499;SDS011;3283;52.330;9.772;2022-12-19T07:39:35;209.30;;;113.67;;
6499;SDS011;3283;52.330;9.772;2022-12-19T07:42:01;195.63;;;98.73;;
6499;SDS011;3283;52.330;9.772;2022-12-19T07:44:26;218.67;;;113.97;;
6499;SDS011;3283;52.330;9.772;2022-12-19T07:46:51;216.23;;;107.30;;
6499;SDS011;3283;52.330;9.772;2022-12-19T07:49:17;221.90;;;109.43;;
6499;SDS011;3283;52.330;9.772;2022-12-19T07:51:42;219.43;;;112.10;;
6499;SDS011;3283;52.330;9.772;2022-12-19T07:54:07;210.43;;;105.37;;
6499;SDS011;3283;52.330;9.772;2022-12-19T07:56:33;199.67;;;106.60;;
6499;SDS011;3283;52.330;9.772;2022-12-19T07:58:58;208.00;;;104.30;;
6499;SDS011;3283;52.330;9.772;2022-12-19T08:01:23;205.00;;;106.17;;
6499;SDS011;3283;52.330;9.772;2022-12-19T08:03:49;197.93;;;100.53;;
6499;SDS011;3283;52.330;9.772;2022-12-19T08:06:15;170.83;;;101.27;;
6499;SDS011;3283;52.330;9.772;2022-12-19T08:08:40;178.23;;;99.17;;
6499;SDS011;3283;52.330;9.772;2022-12-19T08:13:51;194.57;;;91.33;;
6499;SDS011;3283;52.330;9.772;2022-12-19T08:16:18;216.77;;;111.77;;
6499;SDS011;3283;52.330;9.772;2022-12-19T08:18:43;191.30;;;107.20;;
6499;SDS011;3283;52.330;9.772;2022-12-19T08:21:09;180.33;;;102.87;;
6499;SDS011;3283;52.330;9.772;2022-12-19T08:23:35;199.60;;;106.40;;
6499;SDS011;3283;52.330;9.772;2022-12-19T08:26:03;185.33;;;107.63;;
6499;SDS011;3283;52.330;9.772;2022-12-19T08:28:31;199.43;;;111.87;;
6499;SDS011;3283;52.330;9.772;2022-12-19T08:30:58;185.10;;;104.60;;
6499;SDS011;3283;52.330;9.772;2022-12-19T08:33:29;198.97;;;104.07;;
6499;SDS011;3283;52.330;9.772;2022-12-19T08:35:54;195.73;;;104.20;;
6499;SDS011;3283;52.330;9.772;2022-12-19T08:38:20;185.40;;;100.23;;
6499;SDS011;3283;52.330;9.772;2022-12-19T08:40:50;184.40;;;98.27;;
6499;SDS011;3283;52.330;9.772;2022-12-19T08:43:17;191.53;;;101.87;;
6499;SDS011;3283;52.330;9.772;2022-12-19T08:45:43;180.60;;;99.13;;
6499;SDS011;3283;52.330;9.772;2022-12-19T08:48:09;188.87;;;100.13;;
6499;SDS011;3283;52.330;9.772;2022-12-19T08:50:35;210.20;;;114.13;;
6499;SDS011;3283;52.330;9.772;2022-12-19T08:53:00;199.57;;;109.93;;
6499;SDS011;3283;52.330;9.772;2022-12-19T08:55:26;207.20;;;109.73;;
6499;SDS011;3283;52.330;9.772;2022-12-19T08:57:51;178.67;;;101.07;;
6499;SDS011;3283;52.330;9.772;2022-12-19T09:00:16;191.77;;;113.07;;
6499;SDS011;3283;52.330;9.772;2022-12-19T09:02:42;208.63;;;114.93;;
6499;SDS011;3283;52.330;9.772;2022-12-19T09:05:07;190.47;;;108.07;;
6499;SDS011;3283;52.330;9.772;2022-12-19T09:07:33;192.47;;;103.03;;
6499;SDS011;3283;52.330;9.772;2022-12-19T09:10:00;193.97;;;110.87;;
6499;SDS011;3283;52.330;9.772;2022-12-19T09:12:25;187.60;;;107.03;;
6499;SDS011;3283;52.330;9.772;2022-12-19T09:14:51;197.93;;;106.53;;
6499;SDS011;3283;52.330;9.772;2022-12-19T09:17:16;195.70;;;103.77;;
6499;SDS011;3283;52.330;9.772;2022-12-19T09:19:41;213.83;;;116.50;;
6499;SDS011;3283;52.330;9.772;2022-12-19T09:22:07;177.03;;;97.60;;
6499;SDS011;3283;52.330;9.772;2022-12-19T09:24:32;200.80;;;111.23;;
6499;SDS011;3283;52.330;9.772;2022-12-19T09:26:58;192.20;;;102.00;;
6499;SDS011;3283;52.330;9.772;2022-12-19T09:29:23;203.87;;;114.37;;
6499;SDS011;3283;52.330;9.772;2022-12-19T09:31:49;206.20;;;107.97;;
6499;SDS011;3283;52.330;9.772;2022-12-19T09:34:14;196.33;;;104.27;;
6499;SDS011;3283;52.330;9.772;2022-12-19T09:36:40;197.00;;;107.70;;
6499;SDS011;3283;52.330;9.772;2022-12-19T09:39:05;181.17;;;99.10;;
6499;SDS011;3283;52.330;9.772;2022-12-19T09:44:27;211.50;;;111.80;;
6499;SDS011;3283;52.330;9.772;2022-12-19T09:46:56;189.20;;;103.73;;
6499;SDS011;3283;52.330;9.772;2022-12-19T09:49:25;189.03;;;103.27;;
6499;SDS011;3283;52.330;9.772;2022-12-19T09:52:06;188.53;;;105.50;;
6499;SDS011;3283;52.330;9.772;2022-12-19T09:54:40;194.67;;;97.47;;
6499;SDS011;3283;52.330;9.772;2022-12-19T09:57:11;173.20;;;92.27;;
6499;SDS011;3283;52.330;9.772;2022-12-19T10:04:41;192.70;;;106.57;;
6499;SDS011;3283;52.330;9.772;2022-12-19T10:07:13;195.50;;;101.40;;
6499;SDS011;3283;52.330;9.772;2022-12-19T10:09:39;177.13;;;102.40;;
6499;SDS011;3283;52.330;9.772;2022-12-19T10:14:42;160.87;;;96.30;;
6499;SDS011;3283;52.330;9.772;2022-12-19T10:25:20;135.17;;;82.67;;
6499;SDS011;3283;52.330;9.772;2022-12-19T10:30:54;156.13;;;95.37;;
6499;SDS011;3283;52.330;9.772;2022-12-19T10:33:34;129.43;;;78.40;;
6499;SDS011;3283;52.330;9.772;2022-12-19T10:36:04;135.00;;;81.10;;
6499;SDS011;3283;52.330;9.772;2022-12-19T10:38:36;144.47;;;91.23;;
6499;SDS011;3283;52.330;9.772;2022-12-19T10:41:27;147.80;;;88.47;;
6499;SDS011;3283;52.330;9.772;2022-12-19T10:49:15;142.27;;;85.73;;
6499;SDS011;3283;52.330;9.772;2022-12-19T10:51:41;147.43;;;84.90;;
6499;SDS011;3283;52.330;9.772;2022-12-19T10:54:17;148.77;;;90.27;;
6499;SDS011;3283;52.330;9.772;2022-12-19T10:56:42;152.73;;;91.53;;
6499;SDS011;3283;52.330;9.772;2022-12-19T10:59:14;164.60;;;95.10;;
6499;SDS011;3283;52.330;9.772;2022-12-19T11:01:41;192.60;;;109.73;;
6499;SDS011;3283;52.330;9.772;2022-12-19T11:09:31;186.43;;;104.57;;
6499;SDS011;3283;52.330;9.772;2022-12-19T11:14:37;180.17;;;110.53;;
6499;SDS011;3283;52.330;9.772;2022-12-19T11:17:05;161.90;;;99.20;;
6499;SDS011;3283;52.330;9.772;2022-12-19T11:19:35;154.23;;;91.80;;
6499;SDS011;3283;52.330;9.772;2022-12-19T11:24:49;178.17;;;100.47;;
6499;SDS011;3283;52.330;9.772;2022-12-19T11:30:23;197.83;;;104.73;;
6499;SDS011;3283;52.330;9.772;2022-12-19T11:35:55;162.83;;;103.37;;
6499;SDS011;3283;52.330;9.772;2022-12-19T11:38:39;159.50;;;99.27;;
6499;SDS011;3283;52.330;9.772;2022-12-19T11:41:19;160.77;;;98.13;;
6499;SDS011;3283;52.330;9.772;2022-12-19T11:44:17;161.30;;;96.93;;
6499;SDS011;3283;52.330;9.772;2022-12-19T11:46:52;183.97;;;104.53;;
6499;SDS011;3283;52.330;9.772;2022-12-19T11:49:43;166.13;;;96.50;;
6499;SDS011;3283;52.330;9.772;2022-12-19T11:54:54;141.87;;;83.10;;
6499;SDS011;3283;52.330;9.772;2022-12-19T11:57:23;165.50;;;100.60;;
6499;SDS011;3283;52.330;9.772;2022-12-19T11:59:49;161.70;;;95.87;;
6499;SDS011;3283;52.330;9.772;2022-12-19T12:07:36;199.90;;;118.10;;
6499;SDS011;3283;52.330;9.772;2022-12-19T12:10:12;188.57;;;116.90;;
6499;SDS011;3283;52.330;9.772;2022-12-19T12:12:58;196.07;;;120.90;;
6499;SDS011;3283;52.330;9.772;2022-12-19T12:26:27;219.47;;;127.30;;
6499;SDS011;3283;52.330;9.772;2022-12-19T12:45:22;245.47;;;126.67;;
6499;SDS011;3283;52.330;9.772;2022-12-19T12:48:14;256.23;;;133.60;;
6499;SDS011;3283;52.330;9.772;2022-12-19T12:50:42;219.43;;;123.70;;
6499;SDS011;3283;52.330;9.772;2022-12-19T12:53:11;289.23;;;146.63;;
6499;SDS011;3283;52.330;9.772;2022-12-19T12:55:41;264.20;;;131.23;;
6499;SDS011;3283;52.330;9.772;2022-12-19T13:03:36;299.13;;;150.13;;
6499;SDS011;3283;52.330;9.772;2022-12-19T13:11:05;314.70;;;144.47;;
6499;SDS011;3283;52.330;9.772;2022-12-19T13:13:57;374.63;;;157.33;;
6499;SDS011;3283;52.330;9.772;2022-12-19T13:27:02;276.10;;;137.50;;
6499;SDS011;3283;52.330;9.772;2022-12-19T13:29:32;309.07;;;153.77;;
6499;SDS011;3283;52.330;9.772;2022-12-19T13:32:14;329.70;;;149.90;;
6499;SDS011;3283;52.330;9.772;2022-12-19T13:34:49;341.80;;;146.03;;
6499;SDS011;3283;52.330;9.772;2022-12-19T13:37:21;338.00;;;129.90;;
6499;SDS011;3283;52.330;9.772;2022-12-19T13:42:17;406.27;;;142.50;;
6499;SDS011;3283;52.330;9.772;2022-12-19T13:45:11;304.90;;;143.63;;
6499;SDS011;3283;52.330;9.772;2022-12-19T13:47:46;266.07;;;130.13;;
6499;SDS011;3283;52.330;9.772;2022-12-19T13:50:36;278.60;;;142.23;;
6499;SDS011;3283;52.330;9.772;2022-12-19T13:53:14;298.63;;;128.80;;
6499;SDS011;3283;52.330;9.772;2022-12-19T13:55:41;400.80;;;136.73;;
6499;SDS011;3283;52.330;9.772;2022-12-19T13:58:13;513.33;;;155.43;;
6499;SDS011;3283;52.330;9.772;2022-12-19T14:00:46;512.83;;;165.87;;
6499;SDS011;3283;52.330;9.772;2022-12-19T14:03:17;316.77;;;133.67;;
6499;SDS011;3283;52.330;9.772;2022-12-19T14:05:46;231.63;;;119.27;;
6499;SDS011;3283;52.330;9.772;2022-12-19T14:08:15;185.93;;;102.37;;
6499;SDS011;3283;52.330;9.772;2022-12-19T14:10:46;148.13;;;95.20;;
6499;SDS011;3283;52.330;9.772;2022-12-19T14:13:16;115.40;;;68.30;;
6499;SDS011;3283;52.330;9.772;2022-12-19T14:16:03;110.30;;;67.70;;
6499;SDS011;3283;52.330;9.772;2022-12-19T14:18:30;124.53;;;67.67;;
6499;SDS011;3283;52.330;9.772;2022-12-19T14:21:16;116.50;;;70.27;;
6499;SDS011;3283;52.330;9.772;2022-12-19T14:23:46;139.20;;;72.87;;
6499;SDS011;3283;52.330;9.772;2022-12-19T14:26:23;112.23;;;70.50;;
6499;SDS011;3283;52.330;9.772;2022-12-19T14:28:53;117.97;;;67.17;;
6499;SDS011;3283;52.330;9.772;2022-12-19T14:31:24;113.57;;;68.00;;
6499;SDS011;3283;52.330;9.772;2022-12-19T14:33:50;154.63;;;83.17;;
6499;SDS011;3283;52.330;9.772;2022-12-19T14:36:21;136.93;;;82.90;;
6499;SDS011;3283;52.330;9.772;2022-12-19T14:38:50;187.37;;;99.70;;
6499;SDS011;3283;52.330;9.772;2022-12-19T14:44:15;166.83;;;97.63;;
6499;SDS011;3283;52.330;9.772;2022-12-19T14:46:42;168.80;;;99.23;;
6499;SDS011;3283;52.330;9.772;2022-12-19T14:49:30;170.60;;;96.63;;
6499;SDS011;3283;52.330;9.772;2022-12-19T14:52:00;204.10;;;104.77;;
6499;SDS011;3283;52.330;9.772;2022-12-19T14:54:27;179.13;;;101.53;;
6499;SDS011;3283;52.330;9.772;2022-12-19T14:56:53;201.07;;;100.07;;
6499;SDS011;3283;52.330;9.772;2022-12-19T15:01:57;180.73;;;103.53;;
6499;SDS011;3283;52.330;9.772;2022-12-19T15:04:28;202.57;;;104.43;;
6499;SDS011;3283;52.330;9.772;2022-12-19T15:06:57;193.27;;;100.57;;
6499;SDS011;3283;52.330;9.772;2022-12-19T15:09:25;180.53;;;96.27;;
6499;SDS011;3283;52.330;9.772;2022-12-19T15:11:53;167.43;;;98.80;;
6499;SDS011;3283;52.330;9.772;2022-12-19T15:14:45;174.23;;;102.07;;
6499;SDS011;3283;52.330;9.772;2022-12-19T15:17:19;169.27;;;96.23;;
6499;SDS011;3283;52.330;9.772;2022-12-19T15:19:49;171.93;;;100.00;;
6499;SDS011;3283;52.330;9.772;2022-12-19T15:22:16;162.13;;;95.77;;
6499;SDS011;3283;52.330;9.772;2022-12-19T15:24:42;178.90;;;96.93;;
6499;SDS011;3283;52.330;9.772;2022-12-19T15:27:12;184.40;;;95.70;;
6499;SDS011;3283;52.330;9.772;2022-12-19T15:29:40;180.70;;;99.20;;
6499;SDS011;3283;52.330;9.772;2022-12-19T15:32:08;166.90;;;93.97;;
6499;SDS011;3283;52.330;9.772;2022-12-19T15:34:37;154.43;;;89.20;;
6499;SDS011;3283;52.330;9.772;2022-12-19T15:37:06;150.37;;;85.50;;
6499;SDS011;3283;52.330;9.772;2022-12-19T15:39:33;143.97;;;86.63;;
6499;SDS011;3283;52.330;9.772;2022-12-19T15:41:58;175.93;;;91.60;;
6499;SDS011;3283;52.330;9.772;2022-12-19T15:46:54;163.43;;;91.47;;
6499;SDS011;3283;52.330;9.772;2022-12-19T15:49:20;143.90;;;91.50;;
6499;SDS011;3283;52.330;9.772;2022-12-19T15:51:46;162.27;;;90.90;;
6499;SDS011;3283;52.330;9.772;2022-12-19T15:54:11;149.17;;;86.23;;
6499;SDS011;3283;52.330;9.772;2022-12-19T15:56:38;153.33;;;87.30;;
6499;SDS011;3283;52.330;9.772;2022-12-19T15:59:11;160.73;;;91.23;;
6499;SDS011;3283;52.330;9.772;2022-12-19T16:02:02;143.60;;;85.50;;
6499;SDS011;3283;52.330;9.772;2022-12-19T16:04:37;169.77;;;90.33;;
6499;SDS011;3283;52.330;9.772;2022-12-19T16:07:07;162.23;;;89.57;;
6499;SDS011;3283;52.330;9.772;2022-12-19T16:09:37;159.77;;;94.53;;
6499;SDS011;3283;52.330;9.772;2022-12-19T16:12:02;168.93;;;101.33;;
6499;SDS011;3283;52.330;9.772;2022-12-19T16:14:28;177.57;;;104.63;;
6499;SDS011;3283;52.330;9.772;2022-12-19T16:16:54;175.20;;;95.60;;
6499;SDS011;3283;52.330;9.772;2022-12-19T16:19:24;179.87;;;104.07;;
6499;SDS011;3283;52.330;9.772;2022-12-19T16:21:54;167.27;;;98.40;;
6499;SDS011;3283;52.330;9.772;2022-12-19T16:24:20;178.83;;;99.53;;
6499;SDS011;3283;52.330;9.772;2022-12-19T16:26:49;191.13;;;108.40;;
6499;SDS011;3283;52.330;9.772;2022-12-19T16:29:24;151.93;;;89.47;;
6499;SDS011;3283;52.330;9.772;2022-12-19T16:31:51;158.93;;;91.73;;
6499;SDS011;3283;52.330;9.772;2022-12-19T16:34:19;153.03;;;87.60;;
6499;SDS011;3283;52.330;9.772;2022-12-19T16:36:46;149.27;;;86.87;;
6499;SDS011;3283;52.330;9.772;2022-12-19T16:39:12;166.77;;;98.33;;
6499;SDS011;3283;52.330;9.772;2022-12-19T16:41:38;167.93;;;101.33;;
6499;SDS011;3283;52.330;9.772;2022-12-19T16:44:05;167.77;;;97.50;;
6499;SDS011;3283;52.330;9.772;2022-12-19T16:46:39;174.93;;;97.00;;
6499;SDS011;3283;52.330;9.772;2022-12-19T16:49:09;174.63;;;94.83;;
6499;SDS011;3283;52.330;9.772;2022-12-19T16:51:39;190.07;;;98.10;;
6499;SDS011;3283;52.330;9.772;2022-12-19T16:54:05;164.23;;;94.80;;
6499;SDS011;3283;52.330;9.772;2022-12-19T16:59:05;184.77;;;109.33;;
6499;SDS011;3283;52.330;9.772;2022-12-19T17:01:37;171.60;;;96.30;;
6499;SDS011;3283;52.330;9.772;2022-12-19T17:04:02;194.53;;;102.50;;
6499;SDS011;3283;52.330;9.772;2022-12-19T17:06:27;186.17;;;97.80;;
6499;SDS011;3283;52.330;9.772;2022-12-19T17:08:53;184.87;;;104.97;;
6499;SDS011;3283;52.330;9.772;2022-12-19T17:11:19;202.90;;;108.40;;
6499;SDS011;3283;52.330;9.772;2022-12-19T17:13:47;192.03;;;108.83;;
6499;SDS011;3283;52.330;9.772;2022-12-19T17:16:15;184.17;;;105.53;;
6499;SDS011;3283;52.330;9.772;2022-12-19T17:18:41;175.80;;;100.20;;
6499;SDS011;3283;52.330;9.772;2022-12-19T17:21:16;169.67;;;106.27;;
6499;SDS011;3283;52.330;9.772;2022-12-19T17:23:43;192.13;;;112.83;;
6499;SDS011;3283;52.330;9.772;2022-12-19T17:26:08;227.40;;;122.70;;
6499;SDS011;3283;52.330;9.772;2022-12-19T17:28:34;224.80;;;116.00;;
6499;SDS011;3283;52.330;9.772;2022-12-19T17:31:03;216.43;;;115.37;;
6499;SDS011;3283;52.330;9.772;2022-12-19T17:33:36;205.43;;;115.67;;
6499;SDS011;3283;52.330;9.772;2022-12-19T17:36:04;224.07;;;119.27;;
6499;SDS011;3283;52.330;9.772;2022-12-19T17:38:32;220.97;;;117.33;;
6499;SDS011;3283;52.330;9.772;2022-12-19T17:40:57;209.33;;;108.30;;
6499;SDS011;3283;52.330;9.772;2022-12-19T17:43:23;206.03;;;110.17;;
6499;SDS011;3283;52.330;9.772;2022-12-19T17:45:49;183.30;;;97.73;;
6499;SDS011;3283;52.330;9.772;2022-12-19T17:48:19;228.40;;;121.37;;
6499;SDS011;3283;52.330;9.772;2022-12-19T17:50:51;269.33;;;129.27;;
6499;SDS011;3283;52.330;9.772;2022-12-19T17:53:17;210.30;;;123.73;;
6499;SDS011;3283;52.330;9.772;2022-12-19T17:55:42;211.03;;;115.07;;
6499;SDS011;3283;52.330;9.772;2022-12-19T17:58:08;231.40;;;120.07;;
6499;SDS011;3283;52.330;9.772;2022-12-19T18:00:34;200.47;;;111.23;;
6499;SDS011;3283;52.330;9.772;2022-12-19T18:03:03;181.20;;;105.47;;
6499;SDS011;3283;52.330;9.772;2022-12-19T18:05:34;195.20;;;106.37;;
6499;SDS011;3283;52.330;9.772;2022-12-19T18:08:00;187.77;;;102.43;;
6499;SDS011;3283;52.330;9.772;2022-12-19T18:10:27;169.43;;;100.43;;
6499;SDS011;3283;52.330;9.772;2022-12-19T18:12:54;174.20;;;107.27;;
6499;SDS011;3283;52.330;9.772;2022-12-19T18:15:20;172.20;;;98.33;;
6499;SDS011;3283;52.330;9.772;2022-12-19T18:17:47;176.93;;;91.47;;
6499;SDS011;3283;52.330;9.772;2022-12-19T18:22:43;144.80;;;81.77;;
6499;SDS011;3283;52.330;9.772;2022-12-19T18:25:13;169.97;;;94.13;;
6499;SDS011;3283;52.330;9.772;2022-12-19T18:27:43;170.07;;;88.27;;
6499;SDS011;3283;52.330;9.772;2022-12-19T18:30:09;135.90;;;86.97;;
6499;SDS011;3283;52.330;9.772;2022-12-19T18:32:44;164.80;;;97.00;;
6499;SDS011;3283;52.330;9.772;2022-12-19T18:35:16;175.20;;;105.10;;
6499;SDS011;3283;52.330;9.772;2022-12-19T18:37:44;186.80;;;104.27;;
6499;SDS011;3283;52.330;9.772;2022-12-19T18:40:14;187.87;;;99.67;;
6499;SDS011;3283;52.330;9.772;2022-12-19T18:42:41;164.17;;;89.23;;
6499;SDS011;3283;52.330;9.772;2022-12-19T18:45:11;186.77;;;104.70;;
6499;SDS011;3283;52.330;9.772;2022-12-19T18:47:39;161.57;;;92.73;;
6499;SDS011;3283;52.330;9.772;2022-12-19T18:50:12;180.43;;;97.17;;
6499;SDS011;3283;52.330;9.772;2022-12-19T18:52:46;205.37;;;104.93;;
6499;SDS011;3283;52.330;9.772;2022-12-19T18:55:13;188.03;;;115.83;;
6499;SDS011;3283;52.330;9.772;2022-12-19T18:57:39;203.80;;;106.83;;
6499;SDS011;3283;52.330;9.772;2022-12-19T19:00:06;200.63;;;114.63;;
6499;SDS011;3283;52.330;9.772;2022-12-19T19:02:33;218.80;;;111.87;;
6499;SDS011;3283;52.330;9.772;2022-12-19T19:04:58;195.27;;;103.53;;
6499;SDS011;3283;52.330;9.772;2022-12-19T19:07:24;210.13;;;106.80;;
6499;SDS011;3283;52.330;9.772;2022-12-19T19:09:49;225.67;;;113.00;;
6499;SDS011;3283;52.330;9.772;2022-12-19T19:12:14;230.97;;;144.10;;
6499;SDS011;3283;52.330;9.772;2022-12-19T19:14:40;214.73;;;117.57;;
6499;SDS011;3283;52.330;9.772;2022-12-19T19:17:05;233.70;;;131.60;;
6499;SDS011;3283;52.330;9.772;2022-12-19T19:19:47;225.73;;;119.97;;
6499;SDS011;3283;52.330;9.772;2022-12-19T19:22:12;200.53;;;99.90;;
6499;SDS011;3283;52.330;9.772;2022-12-19T19:24:37;196.70;;;102.23;;
6499;SDS011;3283;52.330;9.772;2022-12-19T19:27:03;224.33;;;119.17;;
6499;SDS011;3283;52.330;9.772;2022-12-19T19:29:28;239.00;;;125.90;;
6499;SDS011;3283;52.330;9.772;2022-12-19T19:31:54;237.90;;;127.83;;
6499;SDS011;3283;52.330;9.772;2022-12-19T19:34:24;260.10;;;134.00;;
6499;SDS011;3283;52.330;9.772;2022-12-19T19:36:53;239.23;;;137.53;;
6499;SDS011;3283;52.330;9.772;2022-12-19T19:39:22;222.40;;;118.20;;
6499;SDS011;3283;52.330;9.772;2022-12-19T19:41:48;219.37;;;126.73;;
6499;SDS011;3283;52.330;9.772;2022-12-19T19:44:13;248.83;;;129.97;;
6499;SDS011;3283;52.330;9.772;2022-12-19T19:46:39;214.23;;;125.70;;
6499;SDS011;3283;52.330;9.772;2022-12-19T19:49:04;257.83;;;140.13;;
6499;SDS011;3283;52.330;9.772;2022-12-19T19:51:29;259.53;;;129.70;;
6499;SDS011;3283;52.330;9.772;2022-12-19T19:53:55;284.40;;;140.73;;
6499;SDS011;3283;52.330;9.772;2022-12-19T19:56:20;223.90;;;111.87;;
6499;SDS011;3283;52.330;9.772;2022-12-19T19:58:46;235.73;;;140.43;;
6499;SDS011;3283;52.330;9.772;2022-12-19T20:01:12;259.07;;;130.60;;
6499;SDS011;3283;52.330;9.772;2022-12-19T20:03:38;237.57;;;123.23;;
6499;SDS011;3283;52.330;9.772;2022-12-19T20:06:06;252.00;;;126.83;;
6499;SDS011;3283;52.330;9.772;2022-12-19T20:08:31;251.30;;;151.00;;
6499;SDS011;3283;52.330;9.772;2022-12-19T20:10:57;260.30;;;135.77;;
6499;SDS011;3283;52.330;9.772;2022-12-19T20:13:24;234.77;;;129.80;;
6499;SDS011;3283;52.330;9.772;2022-12-19T20:15:50;228.63;;;123.13;;
6499;SDS011;3283;52.330;9.772;2022-12-19T20:18:16;247.53;;;142.70;;
6499;SDS011;3283;52.330;9.772;2022-12-19T20:20:41;236.33;;;140.37;;
6499;SDS011;3283;52.330;9.772;2022-12-19T20:23:07;237.60;;;135.37;;
6499;SDS011;3283;52.330;9.772;2022-12-19T20:25:35;219.93;;;123.03;;
6499;SDS011;3283;52.330;9.772;2022-12-19T20:28:03;215.70;;;124.73;;
6499;SDS011;3283;52.330;9.772;2022-12-19T20:30:29;273.73;;;145.00;;
6499;SDS011;3283;52.330;9.772;2022-12-19T20:32:55;217.60;;;120.03;;
6499;SDS011;3283;52.330;9.772;2022-12-19T20:35:21;239.40;;;124.13;;
6499;SDS011;3283;52.330;9.772;2022-12-19T20:37:46;205.57;;;107.77;;
6499;SDS011;3283;52.330;9.772;2022-12-19T20:40:11;216.53;;;127.43;;
6499;SDS011;3283;52.330;9.772;2022-12-19T20:42:37;249.70;;;125.30;;
6499;SDS011;3283;52.330;9.772;2022-12-19T20:45:02;234.20;;;129.23;;
6499;SDS011;3283;52.330;9.772;2022-12-19T20:47:28;240.97;;;116.80;;
6499;SDS011;3283;52.330;9.772;2022-12-19T20:49:54;254.67;;;144.70;;
6499;SDS011;3283;52.330;9.772;2022-12-19T20:52:19;258.67;;;128.67;;
6499;SDS011;3283;52.330;9.772;2022-12-19T20:54:45;264.67;;;125.43;;
6499;SDS011;3283;52.330;9.772;2022-12-19T20:57:10;310.87;;;149.53;;
6499;SDS011;3283;52.330;9.772;2022-12-19T20:59:36;318.50;;;134.60;;
6499;SDS011;3283;52.330;9.772;2022-12-19T21:02:01;244.83;;;126.60;;
6499;SDS011;3283;52.330;9.772;2022-12-19T21:04:27;204.43;;;118.13;;
6499;SDS011;3283;52.330;9.772;2022-12-19T21:06:54;195.20;;;113.30;;
6499;SDS011;3283;52.330;9.772;2022-12-19T21:09:19;205.00;;;120.17;;
6499;SDS011;3283;52.330;9.772;2022-12-19T21:11:45;147.37;;;98.17;;
6499;SDS011;3283;52.330;9.772;2022-12-19T21:14:10;112.67;;;65.67;;
6499;SDS011;3283;52.330;9.772;2022-12-19T21:16:36;224.73;;;131.33;;
6499;SDS011;3283;52.330;9.772;2022-12-19T21:19:02;246.53;;;128.80;;
6499;SDS011;3283;52.330;9.772;2022-12-19T21:21:28;263.03;;;142.67;;
6499;SDS011;3283;52.330;9.772;2022-12-19T21:23:53;292.57;;;130.27;;
6499;SDS011;3283;52.330;9.772;2022-12-19T21:26:20;235.10;;;124.57;;
6499;SDS011;3283;52.330;9.772;2022-12-19T21:28:46;285.40;;;119.83;;
6499;SDS011;3283;52.330;9.772;2022-12-19T21:33:39;271.93;;;127.33;;
6499;SDS011;3283;52.330;9.772;2022-12-19T21:36:09;89.37;;;54.13;;
6499;SDS011;3283;52.330;9.772;2022-12-19T21:38:38;52.17;;;16.90;;